Omidiyeh, Iran
Current Conditions -  °F | °C
As of 8:00 AM on Thursday 23 Oct 2014 (Local Time) from OIAG Reporting Station
Clear Clear  
Wind Chill: 66°   Ceiling: Unl
Heat Index: 66°   Visibility: 6mi
Dew Point: 46°   Wind: 2mph
Humidity: 49%   Direction: 340°NNW
Pressure: 30.06"   Gusts: NA
Location:  30.75°N, 49.71°E
Report Text: OIAG 230500Z 34002KT CAVOK 19/08 Q1018
Loading
Personal Weather Stations






























Interactive Weather Map
Tropical Storm Tracking
New forecast layout! Learn more

10-Day Weather Forecast

Advertisements
Track Severe Weather on mobile